5NYEM DNAA-DNPO

Flight info

Callsign 5NYEM
Flight time 0h 37m
Altitude 34000
Route IKVAD1Q IKVAD DCT IVBUV UV456 BORMO BORMO1R
Aircraft C750/M-SBDE3FGHRWXY/S

Departure

Time 2026-05-04 08:24
Airport Nnamdi Azikiwe International Airport (DNAA)

Arrival

Time 2026-05-04 09:01
Airport Port Harcourt International Airport (DNPO)
Time Latitude Longitude Altitude Speed Heading
2026-05-04 08:02 9.01182 7.27131 1115 ft 0 kts 198°
2026-05-04 08:16 9.01252 7.27099 1118 ft 9 kts 13°
2026-05-04 08:16 9.01316 7.27139 1120 ft 13 kts 34°
2026-05-04 08:16 9.01404 7.27200 1121 ft 16 kts 33°
2026-05-04 08:17 9.01485 7.27171 1121 ft 12 kts 304°
2026-05-04 08:17 9.01547 7.27139 1120 ft 9 kts 11°
2026-05-04 08:17 9.01595 7.27169 1120 ft 7 kts 33°
2026-05-04 08:17 9.01633 7.27195 1122 ft 6 kts 35°
2026-05-04 08:19 9.01736 7.27268 1118 ft 5 kts 35°
2026-05-04 08:19 9.01773 7.27295 1124 ft 7 kts 35°
2026-05-04 08:20 9.01821 7.27328 1125 ft 9 kts 34°
2026-05-04 08:20 9.01833 7.27336 1120 ft 0 kts 31°
2026-05-04 08:21 9.01844 7.27343 1125 ft 4 kts 33°
2026-05-04 08:21 9.01885 7.27363 1126 ft 8 kts 11°
2026-05-04 08:21 9.01943 7.27334 1126 ft 12 kts 306°
2026-05-04 08:22 9.01991 7.27251 1125 ft 10 kts 272°
2026-05-04 08:22 9.01963 7.27223 1126 ft 5 kts 216°
2026-05-04 08:24 8.95327 7.24742 3934 ft 248 kts 184°
2026-05-04 08:24 8.93522 7.24614 4528 ft 270 kts 185°
2026-05-04 08:24 8.91623 7.24482 5470 ft 274 kts 183°
2026-05-04 08:24 8.89688 7.24377 6335 ft 283 kts 182°
2026-05-04 08:25 8.87734 7.24274 7228 ft 287 kts 181°
2026-05-04 08:25 8.85725 7.24159 8225 ft 292 kts 180°
2026-05-04 08:25 8.83671 7.24040 9243 ft 297 kts 179°
2026-05-04 08:25 8.81585 7.23923 10162 ft 304 kts 179°
2026-05-04 08:26 8.79395 7.23805 10579 ft 328 kts 179°
2026-05-04 08:27 8.61493 7.22791 14834 ft 389 kts 180°
2026-05-04 08:28 8.58777 7.22637 15508 ft 393 kts 180°
2026-05-04 08:28 8.56058 7.22485 16177 ft 398 kts 180°
2026-05-04 08:28 8.53274 7.22330 16886 ft 402 kts 180°
2026-05-04 08:28 8.50469 7.22171 17610 ft 406 kts 181°
2026-05-04 08:29 8.47633 7.22010 18348 ft 410 kts 181°
2026-05-04 08:29 8.44773 7.21850 19002 ft 414 kts 181°
2026-05-04 08:29 8.41883 7.21688 19726 ft 416 kts 181°
2026-05-04 08:31 8.21096 7.20519 24518 ft 441 kts 183°
2026-05-04 08:33 7.98970 7.19252 27989 ft 475 kts 184°
2026-05-04 08:33 7.95614 7.19060 27995 ft 491 kts 184°
2026-05-04 08:35 7.70273 7.16904 28007 ft 531 kts 186°
2026-05-04 08:35 7.66591 7.16530 28011 ft 531 kts 186°
2026-05-04 08:35 7.59238 7.15791 28009 ft 531 kts 186°
2026-05-04 08:37 7.33476 7.13515 28021 ft 532 kts 185°
2026-05-04 08:38 7.26099 7.12842 28022 ft 532 kts 185°
2026-05-04 08:38 7.19972 7.12302 28027 ft 532 kts 185°
2026-05-04 08:40 6.90664 7.09219 28005 ft 533 kts 190°
2026-05-04 08:41 6.82074 7.08187 28010 ft 532 kts 182°
2026-05-04 08:41 6.75934 7.07840 28018 ft 533 kts 184°
2026-05-04 08:42 6.68518 7.07364 28017 ft 533 kts 183°
2026-05-04 08:42 6.61110 7.06949 28020 ft 533 kts 183°
2026-05-04 08:43 6.53701 7.06446 28016 ft 533 kts 185°
2026-05-04 08:43 6.46308 7.05773 28015 ft 533 kts 185°
2026-05-04 08:44 6.38948 7.05105 27594 ft 519 kts 185°
2026-05-04 08:44 6.35430 7.04783 26876 ft 496 kts 185°
2026-05-04 08:46 6.13819 7.02820 22504 ft 430 kts 184°
2026-05-04 08:46 6.10841 7.02548 21908 ft 428 kts 184°
2026-05-04 08:46 6.07881 7.02292 21307 ft 426 kts 182°
2026-05-04 08:46 6.04938 7.02061 20718 ft 423 kts 182°
2026-05-04 08:47 6.02005 7.01827 20125 ft 421 kts 182°
2026-05-04 08:47 5.99093 7.01579 19540 ft 418 kts 182°
2026-05-04 08:47 5.96208 7.01333 18961 ft 414 kts 181°
2026-05-04 08:47 5.93345 7.01099 18386 ft 412 kts 181°
2026-05-04 08:48 5.90498 7.00867 17767 ft 407 kts 181°
2026-05-04 08:48 5.87693 7.00634 17203 ft 403 kts 181°
2026-05-04 08:48 5.84899 7.00400 16644 ft 400 kts 181°
2026-05-04 08:48 5.82142 7.00214 16074 ft 394 kts 177°
2026-05-04 08:49 5.79461 7.00546 15521 ft 383 kts 163°
2026-05-04 08:50 5.64527 7.04849 12387 ft 364 kts 159°
2026-05-04 08:50 5.62108 7.05546 11882 ft 360 kts 159°
2026-05-04 08:51 5.59707 7.06236 11382 ft 356 kts 159°
2026-05-04 08:51 5.57380 7.06903 10891 ft 338 kts 159°
2026-05-04 08:51 5.55179 7.07535 10441 ft 321 kts 159°
2026-05-04 08:51 5.53088 7.08139 9994 ft 306 kts 159°
2026-05-04 08:52 5.51082 7.08719 9544 ft 294 kts 159°
2026-05-04 08:52 5.49102 7.09082 9085 ft 291 kts 174°
2026-05-04 08:52 5.47100 7.08952 8750 ft 285 kts 179°
2026-05-04 08:52 5.45156 7.08828 8367 ft 286 kts 178°
2026-05-04 08:53 5.43164 7.08725 7972 ft 287 kts 178°
2026-05-04 08:54 5.30700 7.07991 5430 ft 272 kts 181°
2026-05-04 08:55 5.28829 7.07880 5057 ft 265 kts 181°
2026-05-04 08:55 5.27051 7.07773 4689 ft 236 kts 182°
2026-05-04 08:55 5.25449 7.07631 4325 ft 228 kts 188°
2026-05-04 08:55 5.23987 7.07064 4004 ft 223 kts 205°
2026-05-04 08:57 5.14821 7.02099 2303 ft 181 kts 208°
2026-05-04 09:01 5.03405 6.95949 212 ft 119 kts 207°
2026-05-04 09:01 5.02693 6.95567 84 ft 113 kts 207°
2026-05-04 09:01 5.02088 6.95247 66 ft 71 kts 208°
2026-05-04 09:01 5.01839 6.95115 66 ft 17 kts 207°
2026-05-04 09:02 5.01762 6.95132 63 ft 11 kts 122°
2026-05-04 09:02 5.01725 6.95198 62 ft 11 kts 118°
2026-05-04 09:02 5.01675 6.95248 63 ft 10 kts 179°
2026-05-04 09:02 5.01617 6.95222 63 ft 9 kts 207°
2026-05-04 09:03 5.01566 6.95194 62 ft 8 kts 209°
2026-05-04 09:03 5.01516 6.95167 63 ft 8 kts 206°
2026-05-04 09:03 5.01461 6.95138 62 ft 10 kts 208°
2026-05-04 09:03 5.01396 6.95104 60 ft 11 kts 208°
2026-05-04 09:04 5.01323 6.95065 62 ft 12 kts 208°
2026-05-04 09:04 5.01250 6.95026 60 ft 12 kts 208°
2026-05-04 09:04 5.01178 6.94988 59 ft 12 kts 207°
2026-05-04 09:04 5.01103 6.94946 57 ft 13 kts 209°
2026-05-04 09:05 5.01023 6.94901 58 ft 13 kts 208°
2026-05-04 09:05 5.00949 6.94893 56 ft 9 kts 147°
2026-05-04 09:05 5.00916 6.94943 60 ft 8 kts 121°
2026-05-04 09:05 5.00891 6.94979 59 ft 4 kts 158°
2026-05-04 09:06 5.00878 6.94974 58 ft 1 kts 207°
2026-05-04 09:07 5.00839 6.94953 56 ft 0 kts 207°